This is the latest recevied weather packets stored in our database for station/object SV3AQT-13. If no packets are shown the sender has not sent any weather packets the latest 10 day(s).
| Time | Temp. | Humidity | Pressure | Rain* | Wind** | Luminosity | Snow |
|---|---|---|---|---|---|---|---|
| 1788341113 | 30.56° C | 74% | 1018.2 hPa | 0 mm | 1.79 m/s, 70° | - | - |
| 1788340514 | 30.56° C | 75% | 1018.2 hPa | 0 mm | 0.89 m/s, 52° | - | - |
| 1788339912 | 30° C | 77% | 1018.2 hPa | 0 mm | 1.34 m/s, 59° | - | - |
| 1788339311 | 29.44° C | 78% | 1018.2 hPa | 0 mm | 1.34 m/s, 74° | - | - |
| 1788338711 | 30° C | 77% | 1018.2 hPa | 0 mm | 0.89 m/s, 54° | - | - |
| 1788338110 | 30.56° C | 74% | 1018.2 hPa | 0 mm | 0.45 m/s, 72° | - | - |
| 1788337510 | 30.56° C | 76% | 1018.2 hPa | 0 mm | 0.45 m/s, 70° | - | - |
| 1788336910 | 30° C | 77% | 1018.2 hPa | 0 mm | 0 m/s | - | - |
| 1788336310 | 29.44° C | 76% | 1018.2 hPa | 0 mm | 0.89 m/s, 36° | - | - |
| 1788335709 | 28.89° C | 76% | 1018.2 hPa | 0 mm | 1.79 m/s, 60° | - | - |
| 1788335110 | 28.89° C | 75% | 1018.2 hPa | 0 mm | 1.79 m/s, 71° | - | - |
| 1788334509 | 29.44° C | 75% | 1018.2 hPa | 0 mm | 1.34 m/s, 84° | - | - |
| 1788333912 | 28.89° C | 74% | 1018.2 hPa | 0 mm | 1.79 m/s, 78° | - | - |
| 1788332721 | 29.44° C | 73% | 1018.2 hPa | 0 mm | 0.89 m/s, 74° | - | - |
| 1788331509 | 29.44° C | 71% | 1017.9 hPa | 0 mm | 0.45 m/s, 72° | - | - |
| 1788330909 | 28.89° C | 71% | 1018.2 hPa | 0 mm | 0.45 m/s, 81° | - | - |
| 1788330879 | 28.89° C | 71% | 1018.2 hPa | 0 mm | 0.45 m/s, 81° | - | - |
| 1788330779 | 28.89° C | 71% | 1018.2 hPa | 0 mm | 0.89 m/s, 79° | - | - |
| 1788330697 | 28.89° C | 70% | 1018.2 hPa | 0 mm | 1.34 m/s, 59° | - | - |
| 1788330094 | 28.89° C | 73% | 1017.9 hPa | 0 mm | 0.89 m/s, 56° | - | - |
| 1788329863 | 29.44° C | 75% | 1017.9 hPa | 0 mm | 0.89 m/s, 72° | - | - |
| 1788329741 | 29.44° C | 74% | 1017.9 hPa | 0 mm | 0.45 m/s, 78° | - | - |
* Rain latest hour (hover to see other rain measurements)
** Current wind speed in m/s (hover to see current wind gust speed)